createdAt,value
2018-10-21T00:00:55.411Z,0
2018-10-21T00:02:04.038Z,0
2018-10-21T00:03:13.112Z,0
2018-10-21T00:04:21.704Z,0
2018-10-21T00:05:30.609Z,0
2018-10-21T00:06:39.239Z,0
2018-10-21T00:07:47.886Z,0
2018-10-21T00:08:56.554Z,0
2018-10-21T00:10:05.171Z,0
2018-10-21T00:11:13.795Z,0
2018-10-21T00:12:22.437Z,0
2018-10-21T00:13:31.072Z,0
2018-10-21T00:14:39.722Z,0
2018-10-21T00:15:50.006Z,0
2018-10-21T00:16:58.638Z,0
2018-10-21T00:18:07.278Z,0
2018-10-21T00:19:15.916Z,0
2018-10-21T00:20:24.562Z,0
2018-10-21T00:21:33.470Z,0
2018-10-21T00:22:42.111Z,0
2018-10-21T00:23:50.740Z,0
2018-10-21T00:24:59.386Z,0
2018-10-21T00:26:08.021Z,0
2018-10-21T00:27:16.751Z,0
2018-10-21T00:28:25.298Z,0
2018-10-21T00:29:33.944Z,0
2018-10-21T00:30:42.579Z,0
2018-10-21T00:31:51.220Z,0
2018-10-21T00:33:00.695Z,0
2018-10-21T00:34:09.314Z,0
2018-10-21T00:35:17.958Z,0
2018-10-21T00:36:26.599Z,0
2018-10-21T00:37:35.238Z,0
2018-10-21T00:38:43.869Z,0
2018-10-21T00:39:52.774Z,0
2018-10-21T00:41:01.409Z,0
2018-10-21T00:42:10.043Z,0
2018-10-21T00:43:18.686Z,0
2018-10-21T00:44:27.325Z,0
2018-10-21T00:45:35.963Z,0
2018-10-21T00:46:44.601Z,0
2018-10-21T00:47:53.767Z,0
2018-10-21T00:49:02.407Z,0
2018-10-21T00:50:11.308Z,0
2018-10-21T00:51:19.944Z,0
2018-10-21T00:52:28.582Z,0
2018-10-21T00:53:37.219Z,0
2018-10-21T00:54:45.861Z,0
2018-10-21T00:55:54.502Z,0
2018-10-21T00:57:03.175Z,0
2018-10-21T00:58:11.774Z,0
2018-10-21T00:59:20.413Z,0
2018-10-21T01:00:29.055Z,0
2018-10-21T01:01:37.696Z,0
2018-10-21T01:02:46.335Z,0
2018-10-21T01:03:54.971Z,0
2018-10-21T01:05:03.895Z,0
2018-10-21T01:06:12.792Z,0
2018-10-21T01:07:21.432Z,0
2018-10-21T01:08:30.070Z,0
2018-10-21T01:09:38.714Z,0
2018-10-21T01:10:47.356Z,0
2018-10-21T01:11:55.998Z,0
2018-10-21T01:13:04.632Z,0
2018-10-21T01:14:13.270Z,0
2018-10-21T01:15:22.337Z,0
2018-10-21T01:16:31.502Z,0
2018-10-21T01:17:40.140Z,0
2018-10-21T01:18:48.772Z,0
2018-10-21T01:19:57.416Z,0
2018-10-21T01:21:06.100Z,0
2018-10-21T01:22:14.704Z,0
2018-10-21T01:23:23.338Z,0
2018-10-21T01:24:31.985Z,0
2018-10-21T01:25:40.627Z,0
2018-10-21T01:26:49.259Z,0
2018-10-21T01:27:57.890Z,0
2018-10-21T01:29:06.530Z,0
2018-10-21T01:30:15.170Z,0
2018-10-21T01:31:23.809Z,0
2018-10-21T01:32:32.451Z,0
2018-10-21T01:33:41.341Z,0
2018-10-21T01:34:49.979Z,0
2018-10-21T01:35:58.614Z,0
2018-10-21T01:37:07.402Z,0
2018-10-21T01:38:16.292Z,0
2018-10-21T01:39:24.908Z,0
2018-10-21T01:40:33.539Z,0
2018-10-21T01:41:42.188Z,0
2018-10-21T01:42:50.816Z,0
2018-10-21T01:43:59.460Z,0
2018-10-21T01:45:08.466Z,0
2018-10-21T01:46:17.002Z,0
2018-10-21T01:47:25.639Z,0
2018-10-21T01:48:34.584Z,0
2018-10-21T01:49:43.219Z,0
2018-10-21T01:50:51.854Z,0
2018-10-21T01:52:00.502Z,0
2018-10-21T01:53:09.397Z,0
2018-10-21T01:54:18.042Z,0
2018-10-21T01:55:26.669Z,0
2018-10-21T01:56:35.315Z,0
2018-10-21T01:57:43.947Z,0
2018-10-21T01:58:52.591Z,0
2018-10-21T02:00:01.224Z,0
2018-10-21T02:01:09.868Z,0
2018-10-21T02:02:18.504Z,0
2018-10-21T02:03:27.148Z,0
2018-10-21T02:04:35.777Z,0
2018-10-21T02:05:44.680Z,0
2018-10-21T02:06:53.324Z,0
2018-10-21T02:08:01.964Z,0
2018-10-21T02:09:11.353Z,0
2018-10-21T02:10:19.926Z,0
2018-10-21T02:11:28.569Z,0
2018-10-21T02:12:37.202Z,0
2018-10-21T02:13:45.848Z,0
2018-10-21T02:14:54.483Z,0
2018-10-21T02:16:03.121Z,0
2018-10-21T02:17:12.015Z,0
2018-10-21T02:18:20.662Z,0
2018-10-21T02:19:29.291Z,0
2018-10-21T02:20:37.932Z,0
2018-10-21T02:21:46.566Z,0
2018-10-21T02:22:55.217Z,0
2018-10-21T02:24:03.852Z,0
2018-10-21T02:25:12.486Z,0
2018-10-21T02:26:21.161Z,0
2018-10-21T02:27:29.758Z,0
2018-10-21T02:28:38.407Z,0
2018-10-21T02:29:47.564Z,0
2018-10-21T02:30:56.206Z,0
2018-10-21T02:32:04.835Z,0
2018-10-21T02:33:14.241Z,0
2018-10-21T02:34:22.787Z,0
2018-10-21T02:35:31.692Z,0
2018-10-21T02:36:40.333Z,0
2018-10-21T02:37:49.493Z,0
2018-10-21T02:38:58.229Z,0
2018-10-21T02:40:07.301Z,0
2018-10-21T02:41:16.211Z,0
2018-10-21T02:42:24.851Z,0
2018-10-21T02:43:33.484Z,0
2018-10-21T02:44:42.647Z,0
2018-10-21T02:45:51.282Z,0
2018-10-21T02:46:59.932Z,0
2018-10-21T02:48:08.563Z,0
2018-10-21T02:49:17.209Z,0
2018-10-21T02:50:26.132Z,0
2018-10-21T02:51:34.787Z,0
2018-10-21T02:52:43.688Z,0
2018-10-21T02:53:52.330Z,0
2018-10-21T02:55:01.222Z,0
2018-10-21T02:56:09.869Z,0
2018-10-21T02:57:18.567Z,0
2018-10-21T02:58:27.417Z,0
2018-10-21T02:59:36.048Z,0
2018-10-21T03:00:44.954Z,0
2018-10-21T03:01:53.593Z,0
2018-10-21T03:03:02.256Z,0
2018-10-21T03:04:10.874Z,0
2018-10-21T03:05:19.764Z,0
2018-10-21T03:06:28.670Z,0
2018-10-21T03:07:37.570Z,0
2018-10-21T03:08:46.482Z,0
2018-10-21T03:09:55.378Z,0
2018-10-21T03:11:04.019Z,0
2018-10-21T03:12:12.669Z,0
2018-10-21T03:13:21.338Z,0
2018-10-21T03:14:29.976Z,0
2018-10-21T03:15:38.615Z,0
2018-10-21T03:16:47.252Z,0
2018-10-21T03:17:55.901Z,0
2018-10-21T03:19:04.540Z,0
2018-10-21T03:20:13.178Z,0
2018-10-21T03:21:22.775Z,0
2018-10-21T03:22:31.145Z,0
2018-10-21T03:23:39.792Z,0
2018-10-21T03:24:48.693Z,0
2018-10-21T03:25:57.348Z,0
2018-10-21T03:27:06.613Z,0
2018-10-21T03:28:15.220Z,0
2018-10-21T03:29:24.121Z,0
2018-10-21T03:30:32.769Z,0
2018-10-21T03:31:41.679Z,0
2018-10-21T03:32:50.776Z,0
2018-10-21T03:34:00.104Z,0
2018-10-21T03:35:08.530Z,0
2018-10-21T03:36:17.168Z,0
2018-10-21T03:37:25.803Z,0
2018-10-21T03:38:34.705Z,0
2018-10-21T03:39:43.347Z,0
2018-10-21T03:40:52.509Z,0
2018-10-21T03:42:01.405Z,0
2018-10-21T03:43:10.319Z,0
2018-10-21T03:44:19.219Z,0
2018-10-21T03:45:27.865Z,0
2018-10-21T03:46:36.497Z,0
2018-10-21T03:47:45.134Z,0
2018-10-21T03:48:53.770Z,0
2018-10-21T03:50:02.415Z,0
2018-10-21T03:51:11.046Z,0
2018-10-21T03:52:19.686Z,0
2018-10-21T03:53:28.325Z,0
2018-10-21T03:54:37.230Z,0
2018-10-21T03:55:45.865Z,0
2018-10-21T03:56:54.512Z,0
2018-10-21T03:58:03.182Z,0
2018-10-21T03:59:11.780Z,0
2018-10-21T04:00:20.424Z,0
2018-10-21T04:01:29.328Z,0
2018-10-21T04:02:37.960Z,0
2018-10-21T04:03:46.598Z,0
2018-10-21T04:04:55.243Z,0
2018-10-21T04:06:03.877Z,0
2018-10-21T04:07:12.515Z,0
2018-10-21T04:08:21.147Z,0
2018-10-21T04:09:29.787Z,0
2018-10-21T04:10:38.423Z,0
2018-10-21T04:11:47.335Z,0
2018-10-21T04:12:55.967Z,0
2018-10-21T04:14:05.141Z,0
2018-10-21T04:15:13.776Z,0
2018-10-21T04:16:22.802Z,0
2018-10-21T04:17:31.439Z,0
2018-10-21T04:18:40.074Z,0
2018-10-21T04:19:48.708Z,0
2018-10-21T04:20:57.345Z,0
2018-10-21T04:22:06.374Z,0
2018-10-21T04:23:14.959Z,0
2018-10-21T04:24:23.861Z,0
2018-10-21T04:25:32.762Z,0
2018-10-21T04:26:41.403Z,0
2018-10-21T04:27:50.036Z,0
2018-10-21T04:28:58.938Z,0
2018-10-21T04:30:07.834Z,0
2018-10-21T04:31:16.475Z,0
2018-10-21T04:32:25.111Z,0
2018-10-21T04:33:33.748Z,0
2018-10-21T04:34:42.381Z,0
2018-10-21T04:35:51.014Z,0
2018-10-21T04:36:59.659Z,0
2018-10-21T04:38:08.291Z,0
2018-10-21T04:39:16.936Z,0
2018-10-21T04:40:25.562Z,0
2018-10-21T04:41:34.468Z,0
2018-10-21T04:42:43.101Z,0
2018-10-21T04:43:51.761Z,0
2018-10-21T04:45:00.663Z,0
2018-10-21T04:46:09.355Z,0
2018-10-21T04:47:17.945Z,0
2018-10-21T04:48:26.589Z,0
2018-10-21T04:49:35.478Z,0
2018-10-21T04:50:44.114Z,0
2018-10-21T04:51:52.754Z,0
2018-10-21T04:53:01.394Z,0
2018-10-21T04:54:10.034Z,0
2018-10-21T04:55:18.935Z,0
2018-10-21T04:56:27.577Z,0
2018-10-21T04:57:36.209Z,0
2018-10-21T04:58:44.860Z,0
2018-10-21T04:59:53.490Z,0
2018-10-21T05:01:02.132Z,0
2018-10-21T05:02:10.771Z,0
2018-10-21T05:03:19.416Z,0
2018-10-21T05:04:28.042Z,0
2018-10-21T05:05:36.688Z,0
2018-10-21T05:06:45.325Z,0
2018-10-21T05:07:53.970Z,0
2018-10-21T05:09:02.868Z,0
2018-10-21T05:10:11.541Z,0
2018-10-21T05:11:20.134Z,0
2018-10-21T05:12:28.769Z,0
2018-10-21T05:13:37.412Z,0
2018-10-21T05:14:46.302Z,0
2018-10-21T05:15:55.266Z,0
2018-10-21T05:17:03.837Z,0
2018-10-21T05:18:12.481Z,0
2018-10-21T05:19:21.113Z,0
2018-10-21T05:20:29.755Z,0
2018-10-21T05:21:38.382Z,0
2018-10-21T05:22:47.028Z,0
2018-10-21T05:23:56.009Z,0
2018-10-21T05:25:04.589Z,0
2018-10-21T05:26:13.218Z,0
2018-10-21T05:27:21.858Z,0
2018-10-21T05:28:30.768Z,0
2018-10-21T05:29:39.410Z,0
2018-10-21T05:30:48.047Z,0
2018-10-21T05:31:56.672Z,0
2018-10-21T05:33:05.309Z,0
2018-10-21T05:34:14.023Z,0
2018-10-21T05:35:23.023Z,0
2018-10-21T05:36:31.654Z,0
2018-10-21T05:37:40.292Z,0
2018-10-21T05:38:48.928Z,0
2018-10-21T05:39:58.217Z,0
2018-10-21T05:41:06.790Z,0
2018-10-21T05:42:15.429Z,0
2018-10-21T05:43:24.063Z,0
2018-10-21T05:44:32.966Z,0
2018-10-21T05:45:41.871Z,0
2018-10-21T05:46:50.646Z,0
2018-10-21T05:47:59.145Z,0
2018-10-21T05:49:07.775Z,0
2018-10-21T05:50:16.417Z,0
2018-10-21T05:51:25.055Z,0
2018-10-21T05:52:33.692Z,0
2018-10-21T05:53:42.326Z,0
2018-10-21T05:54:50.968Z,0
2018-10-21T05:55:59.607Z,0
2018-10-21T05:57:08.514Z,0
2018-10-21T05:58:17.520Z,0
2018-10-21T05:59:26.132Z,0
2018-10-21T06:00:34.763Z,0
2018-10-21T06:01:43.404Z,0
2018-10-21T06:02:52.743Z,0
2018-10-21T06:04:01.665Z,0
2018-10-21T06:05:10.281Z,0
2018-10-21T06:06:18.921Z,5
2018-10-21T06:07:27.558Z,5
2018-10-21T06:08:36.189Z,5
2018-10-21T06:09:44.826Z,5
2018-10-21T06:10:53.467Z,5
2018-10-21T06:12:02.110Z,5
2018-10-21T06:13:10.741Z,10
2018-10-21T06:14:19.646Z,10
2018-10-21T06:15:28.818Z,10
2018-10-21T06:16:37.459Z,10
2018-10-21T06:17:46.094Z,10
2018-10-21T06:18:54.734Z,10
2018-10-21T06:20:03.367Z,15
2018-10-21T06:21:12.010Z,15
2018-10-21T06:22:21.082Z,15
2018-10-21T06:23:30.024Z,15
2018-10-21T06:24:38.615Z,15
2018-10-21T06:25:47.248Z,20
2018-10-21T06:26:55.889Z,20
2018-10-21T06:28:04.529Z,20
2018-10-21T06:29:13.167Z,20
2018-10-21T06:30:21.799Z,20
2018-10-21T06:31:30.441Z,20
2018-10-21T06:32:39.081Z,20
2018-10-21T06:33:48.081Z,25
2018-10-21T06:34:56.622Z,25
2018-10-21T06:36:05.253Z,25
2018-10-21T06:37:14.171Z,30
2018-10-21T06:38:23.070Z,30
2018-10-21T06:39:32.254Z,35
2018-10-21T06:40:41.154Z,35
2018-10-21T06:41:49.795Z,35
2018-10-21T06:42:58.434Z,35
2018-10-21T06:44:07.068Z,40
2018-10-21T06:45:16.255Z,40
2018-10-21T06:46:24.980Z,40
2018-10-21T06:47:33.618Z,40
2018-10-21T06:48:42.252Z,40
2018-10-21T06:49:50.899Z,45
2018-10-21T06:50:59.584Z,45
2018-10-21T06:52:08.176Z,45
2018-10-21T06:53:16.806Z,50
2018-10-21T06:54:25.447Z,50
2018-10-21T06:55:34.348Z,55
2018-10-21T06:56:43.126Z,55
2018-10-21T06:57:51.736Z,55
2018-10-21T06:59:00.271Z,60
2018-10-21T07:00:08.910Z,60
2018-10-21T07:01:17.546Z,60
2018-10-21T07:02:26.183Z,65
2018-10-21T07:03:34.817Z,65
2018-10-21T07:04:43.598Z,65
2018-10-21T07:05:52.096Z,65
2018-10-21T07:07:00.996Z,65
2018-10-21T07:08:09.628Z,70
2018-10-21T07:09:18.270Z,70
2018-10-21T07:10:26.907Z,80
2018-10-21T07:11:35.810Z,75
2018-10-21T07:12:44.714Z,80
2018-10-21T07:13:53.626Z,80
2018-10-21T07:15:02.264Z,85
2018-10-21T07:16:11.613Z,90
2018-10-21T07:17:20.148Z,95
2018-10-21T07:18:28.786Z,95
2018-10-21T07:19:37.421Z,100
2018-10-21T07:20:46.330Z,100
2018-10-21T07:21:54.976Z,105
2018-10-21T07:23:03.611Z,105
2018-10-21T07:24:12.261Z,105
2018-10-21T07:25:20.895Z,110
2018-10-21T07:26:29.536Z,110
2018-10-21T07:27:38.175Z,110
2018-10-21T07:28:46.814Z,115
2018-10-21T07:29:55.447Z,115
2018-10-21T07:31:04.094Z,115
2018-10-21T07:32:12.731Z,115
2018-10-21T07:33:21.371Z,115
2018-10-21T07:34:30.007Z,115
2018-10-21T07:35:38.650Z,120
2018-10-21T07:36:47.291Z,120
2018-10-21T07:37:55.931Z,125
2018-10-21T07:39:04.574Z,125
2018-10-21T07:40:13.304Z,125
2018-10-21T07:41:21.848Z,130
2018-10-21T07:42:30.484Z,125
2018-10-21T07:43:39.399Z,125
2018-10-21T07:44:48.290Z,130
2018-10-21T07:45:56.942Z,130
2018-10-21T07:47:05.843Z,130
2018-10-21T07:48:14.752Z,130
2018-10-21T07:49:23.377Z,130
2018-10-21T07:50:32.020Z,130
2018-10-21T07:51:40.659Z,130
2018-10-21T07:52:49.306Z,130
2018-10-21T07:53:57.942Z,130
2018-10-21T07:55:06.910Z,125
2018-10-21T07:56:15.528Z,125
2018-10-21T07:57:24.168Z,125
2018-10-21T07:58:32.814Z,120
2018-10-21T07:59:41.713Z,120
2018-10-21T08:00:50.415Z,120
2018-10-21T08:01:58.992Z,120
2018-10-21T08:03:07.640Z,120
2018-10-21T08:04:16.714Z,120
2018-10-21T08:05:25.273Z,120
2018-10-21T08:06:33.916Z,125
2018-10-21T08:07:42.555Z,125
2018-10-21T08:08:51.470Z,125
2018-10-21T08:10:00.428Z,130
2018-10-21T08:11:09.049Z,125
2018-10-21T08:12:17.691Z,125
2018-10-21T08:13:26.341Z,125
2018-10-21T08:14:35.028Z,130
2018-10-21T08:15:43.626Z,130
2018-10-21T08:16:52.264Z,130
2018-10-21T08:18:00.908Z,135
2018-10-21T08:19:09.820Z,125
2018-10-21T08:20:18.469Z,125
2018-10-21T08:21:27.566Z,125
2018-10-21T08:22:36.210Z,120
2018-10-21T08:23:44.849Z,120
2018-10-21T08:24:53.498Z,120
2018-10-21T08:26:02.128Z,120
2018-10-21T08:27:10.790Z,120
2018-10-21T08:28:19.837Z,120
2018-10-21T08:29:29.289Z,120
2018-10-21T08:30:37.926Z,120
2018-10-21T08:31:46.566Z,120
2018-10-21T08:32:55.469Z,120
2018-10-21T08:34:04.426Z,120
2018-10-21T08:35:13.048Z,115
2018-10-21T08:36:21.684Z,115
2018-10-21T08:37:30.329Z,115
2018-10-21T08:38:38.963Z,115
2018-10-21T08:39:47.611Z,120
2018-10-21T08:40:56.250Z,120
2018-10-21T08:42:04.891Z,120
2018-10-21T08:43:13.522Z,120
2018-10-21T08:44:22.171Z,125
2018-10-21T08:45:30.807Z,120
2018-10-21T08:46:39.893Z,120
2018-10-21T08:47:48.828Z,125
2018-10-21T08:48:57.475Z,125
2018-10-21T08:50:06.681Z,125
2018-10-21T08:51:15.194Z,125
2018-10-21T08:52:23.831Z,125
2018-10-21T08:53:32.464Z,125
2018-10-21T08:54:41.377Z,120
2018-10-21T08:55:50.054Z,120
2018-10-21T08:56:58.938Z,120
2018-10-21T08:58:07.613Z,120
2018-10-21T08:59:16.218Z,120
2018-10-21T09:00:24.853Z,120
2018-10-21T09:01:33.501Z,125
2018-10-21T09:02:42.132Z,120
2018-10-21T09:03:50.777Z,130
2018-10-21T09:04:59.681Z,120
2018-10-21T09:06:08.330Z,120
2018-10-21T09:07:17.085Z,125
2018-10-21T09:08:25.607Z,125
2018-10-21T09:09:34.510Z,125
2018-10-21T09:10:43.338Z,125
2018-10-21T09:11:51.804Z,125
2018-10-21T09:13:00.450Z,125
2018-10-21T09:14:09.083Z,125
2018-10-21T09:15:18.331Z,125
2018-10-21T09:16:26.846Z,125
2018-10-21T09:17:35.481Z,125
2018-10-21T09:18:44.390Z,125
2018-10-21T09:19:53.022Z,125
2018-10-21T09:21:01.673Z,125
2018-10-21T09:22:10.742Z,125
2018-10-21T09:23:19.727Z,125
2018-10-21T09:24:28.622Z,125
2018-10-21T09:25:37.267Z,125
2018-10-21T09:26:45.912Z,130
2018-10-21T09:27:54.563Z,130
2018-10-21T09:29:03.480Z,130
2018-10-21T09:30:12.383Z,130
2018-10-21T09:31:21.288Z,130
2018-10-21T09:32:29.930Z,130
2018-10-21T09:33:38.576Z,130
2018-10-21T09:34:47.217Z,130
2018-10-21T09:35:55.859Z,130
2018-10-21T09:37:04.541Z,130
2018-10-21T09:38:13.149Z,130
2018-10-21T09:39:21.790Z,130
2018-10-21T09:40:30.702Z,130
2018-10-21T09:41:39.605Z,130
2018-10-21T09:42:48.250Z,130
2018-10-21T09:43:56.890Z,130
2018-10-21T09:45:05.532Z,130
2018-10-21T09:46:14.251Z,130
2018-10-21T09:47:22.811Z,130
2018-10-21T09:48:31.456Z,130
2018-10-21T09:49:40.098Z,130
2018-10-21T09:50:48.747Z,130
2018-10-21T09:51:57.662Z,130
2018-10-21T09:53:07.111Z,130
2018-10-21T09:54:15.759Z,130
2018-10-21T09:55:24.400Z,135
2018-10-21T09:56:33.304Z,130
2018-10-21T09:57:41.953Z,135
2018-10-21T09:58:50.593Z,130
2018-10-21T09:59:59.240Z,130
2018-10-21T10:01:08.146Z,130
2018-10-21T10:02:16.787Z,130
2018-10-21T10:03:25.428Z,130
2018-10-21T10:04:34.355Z,130
2018-10-21T10:05:43.267Z,135
2018-10-21T10:06:51.904Z,135
2018-10-21T10:08:00.542Z,135
2018-10-21T10:09:09.188Z,130
2018-10-21T10:10:18.355Z,130
2018-10-21T10:11:26.845Z,130
2018-10-21T10:12:35.749Z,130
2018-10-21T10:13:44.393Z,130
2018-10-21T10:14:53.040Z,130
2018-10-21T10:16:01.686Z,130
2018-10-21T10:17:10.594Z,135
2018-10-21T10:18:19.234Z,130
2018-10-21T10:19:27.883Z,130
2018-10-21T10:20:36.524Z,130
2018-10-21T10:21:45.166Z,130
2018-10-21T10:22:53.807Z,130
2018-10-21T10:24:02.560Z,135
2018-10-21T10:25:11.584Z,130
2018-10-21T10:26:20.651Z,130
2018-10-21T10:27:29.298Z,130
2018-10-21T10:28:37.941Z,130
2018-10-21T10:29:46.580Z,135
2018-10-21T10:30:55.278Z,130
2018-10-21T10:32:04.130Z,130
2018-10-21T10:33:12.777Z,130
2018-10-21T10:34:21.835Z,130
2018-10-21T10:35:30.479Z,130
2018-10-21T10:36:39.656Z,130
2018-10-21T10:37:48.304Z,130
2018-10-21T10:38:56.946Z,135
2018-10-21T10:40:05.927Z,135
2018-10-21T10:41:14.847Z,135
2018-10-21T10:42:23.648Z,135
2018-10-21T10:43:32.123Z,135
2018-10-21T10:44:40.765Z,135
2018-10-21T10:45:49.414Z,135
2018-10-21T10:46:58.048Z,135
2018-10-21T10:48:06.696Z,135
2018-10-21T10:49:15.451Z,135
2018-10-21T10:50:23.982Z,140
2018-10-21T10:51:32.617Z,135
2018-10-21T10:52:41.545Z,135
2018-10-21T10:53:50.189Z,135
2018-10-21T10:54:59.151Z,140
2018-10-21T10:56:07.759Z,135
2018-10-21T10:57:16.408Z,135
2018-10-21T10:58:25.052Z,135
2018-10-21T10:59:34.047Z,135
2018-10-21T11:00:42.680Z,135
2018-10-21T11:01:51.313Z,135
2018-10-21T11:03:00.219Z,135
2018-10-21T11:04:09.285Z,135
2018-10-21T11:05:17.842Z,135
2018-10-21T11:06:27.372Z,135
2018-10-21T11:07:35.940Z,135
2018-10-21T11:08:44.585Z,135
2018-10-21T11:09:53.236Z,135
2018-10-21T11:11:02.144Z,135
2018-10-21T11:12:11.061Z,135
2018-10-21T11:13:20.553Z,135
2018-10-21T11:14:29.217Z,135
2018-10-21T11:15:37.846Z,135
2018-10-21T11:16:46.490Z,135
2018-10-21T11:17:55.132Z,135
2018-10-21T11:19:03.831Z,135
2018-10-21T11:20:12.686Z,135
2018-10-21T11:21:21.330Z,135
2018-10-21T11:22:30.406Z,135
2018-10-21T11:23:39.000Z,130
2018-10-21T11:24:47.657Z,135
2018-10-21T11:25:56.294Z,135
2018-10-21T11:27:04.942Z,135
2018-10-21T11:28:13.972Z,135
2018-10-21T11:29:22.552Z,130
2018-10-21T11:30:31.192Z,135
2018-10-21T11:31:39.838Z,135
2018-10-21T11:32:49.000Z,140
2018-10-21T11:33:57.653Z,135
2018-10-21T11:35:06.297Z,140
2018-10-21T11:36:14.947Z,140
2018-10-21T11:37:23.766Z,140
2018-10-21T11:38:32.489Z,140
2018-10-21T11:39:41.144Z,140
2018-10-21T11:40:49.776Z,140
2018-10-21T11:41:58.956Z,135
2018-10-21T11:43:08.024Z,135
2018-10-21T11:44:16.575Z,135
2018-10-21T11:45:25.217Z,140
2018-10-21T11:46:33.899Z,140
2018-10-21T11:47:42.500Z,140
2018-10-21T11:48:51.144Z,135
2018-10-21T11:49:59.790Z,135
2018-10-21T11:51:08.702Z,130
2018-10-21T11:52:17.366Z,135
2018-10-21T11:53:25.984Z,135
2018-10-21T11:54:34.898Z,135
2018-10-21T11:55:43.540Z,135
2018-10-21T11:56:52.197Z,140
2018-10-21T11:58:00.839Z,140
2018-10-21T11:59:09.482Z,135
2018-10-21T12:00:18.114Z,135
2018-10-21T12:01:26.767Z,130
2018-10-21T12:02:35.415Z,135
2018-10-21T12:03:44.067Z,135
2018-10-21T12:04:52.707Z,135
2018-10-21T12:06:01.362Z,135
2018-10-21T12:07:10.892Z,125
2018-10-21T12:08:19.871Z,125
2018-10-21T12:09:28.508Z,135
2018-10-21T12:10:37.161Z,135
2018-10-21T12:11:46.070Z,130
2018-10-21T12:12:54.721Z,130
2018-10-21T12:14:03.367Z,135
2018-10-21T12:15:12.003Z,130
2018-10-21T12:16:20.652Z,130
2018-10-21T12:17:29.564Z,125
2018-10-21T12:18:38.217Z,125
2018-10-21T12:19:46.907Z,130
2018-10-21T12:20:55.502Z,135
2018-10-21T12:22:04.245Z,135
2018-10-21T12:23:13.481Z,135
2018-10-21T12:24:21.911Z,135
2018-10-21T12:25:30.640Z,135
2018-10-21T12:26:39.559Z,135
2018-10-21T12:27:48.472Z,135
2018-10-21T12:28:57.134Z,130
2018-10-21T12:30:05.766Z,130
2018-10-21T12:31:14.485Z,135
2018-10-21T12:32:23.051Z,130
2018-10-21T12:33:31.704Z,130
2018-10-21T12:34:40.341Z,125
2018-10-21T12:35:48.985Z,125
2018-10-21T12:36:57.689Z,130
2018-10-21T12:38:06.540Z,130
2018-10-21T12:39:15.453Z,130
2018-10-21T12:40:24.099Z,130
2018-10-21T12:41:32.739Z,130
2018-10-21T12:42:41.390Z,130
2018-10-21T12:43:50.028Z,130
2018-10-21T12:44:58.675Z,125
2018-10-21T12:46:08.214Z,130
2018-10-21T12:47:17.303Z,130
2018-10-21T12:48:25.771Z,130
2018-10-21T12:49:34.423Z,130
2018-10-21T12:50:43.072Z,125
2018-10-21T12:51:51.713Z,125
2018-10-21T12:53:00.413Z,125
2018-10-21T12:54:09.401Z,125
2018-10-21T12:55:18.052Z,125
2018-10-21T12:56:26.633Z,125
2018-10-21T12:57:35.276Z,120
2018-10-21T12:58:43.926Z,120
2018-10-21T12:59:52.832Z,125
2018-10-21T13:01:01.515Z,120
2018-10-21T13:02:10.145Z,125
2018-10-21T13:03:18.763Z,125
2018-10-21T13:04:27.411Z,120
2018-10-21T13:05:36.055Z,120
2018-10-21T13:06:44.699Z,120
2018-10-21T13:07:53.341Z,120
2018-10-21T13:09:01.983Z,120
2018-10-21T13:10:10.723Z,115
2018-10-21T13:11:19.277Z,115
2018-10-21T13:12:27.929Z,115
2018-10-21T13:13:36.568Z,115
2018-10-21T13:14:45.215Z,115
2018-10-21T13:15:53.860Z,115
2018-10-21T13:17:02.765Z,115
2018-10-21T13:18:11.407Z,115
2018-10-21T13:19:20.651Z,115
2018-10-21T13:20:29.293Z,115
2018-10-21T13:21:37.940Z,115
2018-10-21T13:22:46.582Z,115
2018-10-21T13:23:55.224Z,110
2018-10-21T13:25:04.191Z,115
2018-10-21T13:26:12.793Z,115
2018-10-21T13:27:21.701Z,115
2018-10-21T13:28:30.917Z,115
2018-10-21T13:29:39.511Z,115
2018-10-21T13:30:48.151Z,110
2018-10-21T13:31:56.801Z,110
2018-10-21T13:33:05.436Z,110
2018-10-21T13:34:14.170Z,110
2018-10-21T13:35:23.093Z,110
2018-10-21T13:36:31.746Z,110
2018-10-21T13:37:40.380Z,105
2018-10-21T13:38:49.291Z,105
2018-10-21T13:39:58.258Z,105
2018-10-21T13:41:06.908Z,105
2018-10-21T13:42:15.540Z,105
2018-10-21T13:43:24.181Z,100
2018-10-21T13:44:33.084Z,100
2018-10-21T13:45:41.792Z,100
2018-10-21T13:46:50.382Z,100
2018-10-21T13:47:59.020Z,100
2018-10-21T13:49:07.695Z,100
2018-10-21T13:50:16.307Z,95
2018-10-21T13:51:24.976Z,95
2018-10-21T13:52:33.660Z,95
2018-10-21T13:53:42.690Z,95
2018-10-21T13:54:51.326Z,90
2018-10-21T13:55:59.978Z,90
2018-10-21T13:57:08.620Z,95
2018-10-21T13:58:17.760Z,90
2018-10-21T13:59:26.304Z,90
2018-10-21T14:00:35.488Z,90
2018-10-21T14:01:44.039Z,85
2018-10-21T14:02:52.687Z,90
2018-10-21T14:04:01.391Z,90
2018-10-21T14:05:09.971Z,90
2018-10-21T14:06:18.621Z,90
2018-10-21T14:07:27.777Z,90
2018-10-21T14:08:36.306Z,90
2018-10-21T14:09:44.944Z,90
2018-10-21T14:10:53.594Z,85
2018-10-21T14:12:02.236Z,85
2018-10-21T14:13:11.279Z,85
2018-10-21T14:14:19.899Z,85
2018-10-21T14:15:28.543Z,80
2018-10-21T14:16:37.273Z,85
2018-10-21T14:17:45.888Z,80
2018-10-21T14:18:54.490Z,80
2018-10-21T14:20:03.390Z,80
2018-10-21T14:21:12.065Z,80
2018-10-21T14:22:20.729Z,80
2018-10-21T14:23:29.319Z,75
2018-10-21T14:24:38.070Z,75
2018-10-21T14:25:46.612Z,75
2018-10-21T14:26:55.260Z,75
2018-10-21T14:28:03.895Z,75
2018-10-21T14:29:12.542Z,75
2018-10-21T14:30:21.787Z,70
2018-10-21T14:31:30.408Z,70
2018-10-21T14:32:39.048Z,70
2018-10-21T14:33:47.694Z,70
2018-10-21T14:34:56.332Z,70
2018-10-21T14:36:05.045Z,70
2018-10-21T14:37:13.627Z,70
2018-10-21T14:38:22.319Z,70
2018-10-21T14:39:30.908Z,70
2018-10-21T14:40:39.814Z,70
2018-10-21T14:41:48.471Z,65
2018-10-21T14:42:57.110Z,65
2018-10-21T14:44:06.027Z,65
2018-10-21T14:45:15.167Z,65
2018-10-21T14:46:23.710Z,65
2018-10-21T14:47:32.349Z,65
2018-10-21T14:48:40.998Z,65
2018-10-21T14:49:49.634Z,60
2018-10-21T14:50:58.335Z,60
2018-10-21T14:52:06.931Z,60
2018-10-21T14:53:15.581Z,60
2018-10-21T14:54:24.218Z,60
2018-10-21T14:55:32.864Z,60
2018-10-21T14:56:41.514Z,60
2018-10-21T14:57:50.164Z,60
2018-10-21T14:58:58.808Z,60
2018-10-21T15:00:07.521Z,55
2018-10-21T15:01:16.104Z,55
2018-10-21T15:02:25.003Z,55
2018-10-21T15:03:34.082Z,55
2018-10-21T15:04:42.647Z,55
2018-10-21T15:05:51.559Z,55
2018-10-21T15:07:00.198Z,55
2018-10-21T15:08:08.859Z,55
2018-10-21T15:09:17.534Z,50
2018-10-21T15:10:26.140Z,50
2018-10-21T15:11:34.776Z,50
2018-10-21T15:12:43.430Z,50
2018-10-21T15:13:52.070Z,50
2018-10-21T15:15:00.710Z,50
2018-10-21T15:16:09.366Z,50
2018-10-21T15:17:17.996Z,50
2018-10-21T15:18:26.648Z,50
2018-10-21T15:19:35.292Z,45
2018-10-21T15:20:43.936Z,45
2018-10-21T15:21:52.576Z,45
2018-10-21T15:23:01.321Z,45
2018-10-21T15:24:10.136Z,45
2018-10-21T15:25:18.782Z,45
2018-10-21T15:26:27.422Z,40
2018-10-21T15:27:36.069Z,40
2018-10-21T15:28:44.712Z,40
2018-10-21T15:29:53.371Z,40
2018-10-21T15:31:01.997Z,40
2018-10-21T15:32:10.729Z,40
2018-10-21T15:33:19.286Z,40
2018-10-21T15:34:27.939Z,35
2018-10-21T15:35:36.575Z,35
2018-10-21T15:36:45.223Z,35
2018-10-21T15:37:54.187Z,35
2018-10-21T15:39:03.047Z,35
2018-10-21T15:40:12.018Z,35
2018-10-21T15:41:21.240Z,35
2018-10-21T15:42:29.899Z,35
2018-10-21T15:43:38.527Z,30
2018-10-21T15:44:47.186Z,30
2018-10-21T15:45:56.336Z,30
2018-10-21T15:47:05.553Z,30
2018-10-21T15:48:14.192Z,30
2018-10-21T15:49:22.840Z,25
2018-10-21T15:50:31.537Z,25
2018-10-21T15:51:40.174Z,25
2018-10-21T15:52:48.773Z,25
2018-10-21T15:53:57.413Z,25
2018-10-21T15:55:06.331Z,25
2018-10-21T15:56:15.347Z,20
2018-10-21T15:57:24.170Z,20
2018-10-21T15:58:32.806Z,20
2018-10-21T15:59:41.454Z,20
2018-10-21T16:00:50.363Z,20
2018-10-21T16:01:59.025Z,20
2018-10-21T16:03:07.650Z,15
2018-10-21T16:04:16.417Z,15
2018-10-21T16:05:24.949Z,15
2018-10-21T16:06:34.115Z,15
2018-10-21T16:07:42.754Z,15
2018-10-21T16:08:51.715Z,10
2018-10-21T16:10:00.369Z,10
2018-10-21T16:11:09.002Z,10
2018-10-21T16:12:17.647Z,10
2018-10-21T16:13:26.288Z,10
2018-10-21T16:14:35.514Z,10
2018-10-21T16:15:44.029Z,10
2018-10-21T16:16:52.661Z,5
2018-10-21T16:18:01.837Z,5
2018-10-21T16:19:10.474Z,5
2018-10-21T16:20:19.202Z,5